sensor_id;sensor_type;location;lat;lon;timestamp;pressure;altitude;pressure_sealevel;temperature;humidity
27840;BME280;15207;42.182;24.308;2023-02-12T00:01:11;100263.81;;;-1.23;56.42
27840;BME280;15207;42.182;24.308;2023-02-12T00:03:37;100267.22;;;-1.16;56.65
27840;BME280;15207;42.182;24.308;2023-02-12T00:06:04;100262.16;;;-1.27;57.10
27840;BME280;15207;42.182;24.308;2023-02-12T00:08:29;100262.19;;;-1.30;57.17
27840;BME280;15207;42.182;24.308;2023-02-12T00:10:55;100261.28;;;-1.29;57.30
27840;BME280;15207;42.182;24.308;2023-02-12T00:13:21;100261.31;;;-1.31;56.87
27840;BME280;15207;42.182;24.308;2023-02-12T00:15:46;100252.44;;;-1.24;56.17
27840;BME280;15207;42.182;24.308;2023-02-12T00:18:12;100252.31;;;-1.16;56.20
27840;BME280;15207;42.182;24.308;2023-02-12T00:20:38;100245.75;;;-0.87;55.36
27840;BME280;15207;42.182;24.308;2023-02-12T00:23:04;100247.59;;;-0.94;54.14
27840;BME280;15207;42.182;24.308;2023-02-12T00:25:30;100246.72;;;-0.94;54.66
27840;BME280;15207;42.182;24.308;2023-02-12T00:27:56;100241.53;;;-0.99;54.39
27840;BME280;15207;42.182;24.308;2023-02-12T00:30:21;100239.81;;;-1.00;54.41
27840;BME280;15207;42.182;24.308;2023-02-12T00:32:47;100249.53;;;-1.05;54.38
27840;BME280;15207;42.182;24.308;2023-02-12T00:35:12;100238.06;;;-1.01;54.27
27840;BME280;15207;42.182;24.308;2023-02-12T00:37:38;100228.53;;;-1.08;53.99
27840;BME280;15207;42.182;24.308;2023-02-12T00:40:04;100226.47;;;-0.89;53.75
27840;BME280;15207;42.182;24.308;2023-02-12T00:42:30;100213.22;;;-0.83;54.06
27840;BME280;15207;42.182;24.308;2023-02-12T00:44:55;100205.63;;;-1.01;54.04
27840;BME280;15207;42.182;24.308;2023-02-12T00:47:21;100211.72;;;-0.98;54.00
27840;BME280;15207;42.182;24.308;2023-02-12T00:49:47;100207.22;;;-0.91;53.94
27840;BME280;15207;42.182;24.308;2023-02-12T00:52:12;100211.59;;;-0.91;52.70
27840;BME280;15207;42.182;24.308;2023-02-12T00:54:38;100214.19;;;-0.88;52.89
27840;BME280;15207;42.182;24.308;2023-02-12T00:57:03;100214.38;;;-1.01;53.18
27840;BME280;15207;42.182;24.308;2023-02-12T00:59:29;100217.56;;;-0.80;53.36
27840;BME280;15207;42.182;24.308;2023-02-12T01:01:55;100219.59;;;-0.96;53.21
27840;BME280;15207;42.182;24.308;2023-02-12T01:04:21;100211.13;;;-1.15;54.18
27840;BME280;15207;42.182;24.308;2023-02-12T01:06:46;100201.53;;;-1.18;54.32
27840;BME280;15207;42.182;24.308;2023-02-12T01:09:12;100194.53;;;-1.21;54.34
27840;BME280;15207;42.182;24.308;2023-02-12T01:11:38;100194.53;;;-1.21;54.08
27840;BME280;15207;42.182;24.308;2023-02-12T01:14:04;100199.34;;;-1.48;55.77
27840;BME280;15207;42.182;24.308;2023-02-12T01:16:30;100192.25;;;-1.41;56.04
27840;BME280;15207;42.182;24.308;2023-02-12T01:18:58;100198.25;;;-1.33;55.39
27840;BME280;15207;42.182;24.308;2023-02-12T01:21:26;100195.53;;;-1.28;54.69
27840;BME280;15207;42.182;24.308;2023-02-12T01:23:53;100182.47;;;-1.33;54.57
27840;BME280;15207;42.182;24.308;2023-02-12T01:26:19;100193.00;;;-1.33;54.20
27840;BME280;15207;42.182;24.308;2023-02-12T01:28:50;100186.16;;;-1.44;55.34
27840;BME280;15207;42.182;24.308;2023-02-12T01:31:19;100180.13;;;-1.51;56.13
27840;BME280;15207;42.182;24.308;2023-02-12T01:33:49;100176.63;;;-1.52;56.01
27840;BME280;15207;42.182;24.308;2023-02-12T01:36:16;100174.00;;;-1.52;55.65
27840;BME280;15207;42.182;24.308;2023-02-12T01:38:41;100172.38;;;-1.61;54.71
27840;BME280;15207;42.182;24.308;2023-02-12T01:41:13;100148.59;;;-1.50;53.62
27840;BME280;15207;42.182;24.308;2023-02-12T01:43:40;100150.88;;;-1.31;52.61
27840;BME280;15207;42.182;24.308;2023-02-12T01:46:07;100147.81;;;-1.04;51.38
27840;BME280;15207;42.182;24.308;2023-02-12T01:48:36;100151.34;;;-1.05;51.89
27840;BME280;15207;42.182;24.308;2023-02-12T01:51:04;100147.06;;;-1.11;52.86
27840;BME280;15207;42.182;24.308;2023-02-12T01:53:35;100142.31;;;-0.90;51.62
27840;BME280;15207;42.182;24.308;2023-02-12T01:56:02;100135.13;;;-1.31;52.05
27840;BME280;15207;42.182;24.308;2023-02-12T01:58:32;100138.59;;;-1.87;55.66
27840;BME280;15207;42.182;24.308;2023-02-12T02:00:59;100153.88;;;-2.17;57.84
27840;BME280;15207;42.182;24.308;2023-02-12T02:03:25;100143.88;;;-2.59;61.69
27840;BME280;15207;42.182;24.308;2023-02-12T02:06:10;100145.41;;;-2.40;62.04
27840;BME280;15207;42.182;24.308;2023-02-12T02:08:37;100140.72;;;-2.13;57.88
27840;BME280;15207;42.182;24.308;2023-02-12T02:11:03;100138.56;;;-1.84;54.62
27840;BME280;15207;42.182;24.308;2023-02-12T02:13:48;100151.97;;;-2.04;58.58
27840;BME280;15207;42.182;24.308;2023-02-12T02:16:33;100151.13;;;-2.05;59.27
27840;BME280;15207;42.182;24.308;2023-02-12T02:19:29;100154.53;;;-1.98;57.91
27840;BME280;15207;42.182;24.308;2023-02-12T02:43:21;100148.06;;;-1.75;54.38
27840;BME280;15207;42.182;24.308;2023-02-12T02:46:05;100154.91;;;-1.63;53.34
27840;BME280;15207;42.182;24.308;2023-02-12T02:48:35;100148.81;;;-1.65;53.94
27840;BME280;15207;42.182;24.308;2023-02-12T02:51:13;100148.78;;;-1.64;53.84
27840;BME280;15207;42.182;24.308;2023-02-12T02:53:57;100143.47;;;-1.61;52.96
27840;BME280;15207;42.182;24.308;2023-02-12T02:56:27;100141.69;;;-1.58;53.06
27840;BME280;15207;42.182;24.308;2023-02-12T02:59:02;100140.59;;;-1.45;52.57
27840;BME280;15207;42.182;24.308;2023-02-12T03:01:30;100145.91;;;-1.48;52.29
27840;BME280;15207;42.182;24.308;2023-02-12T03:04:03;100157.94;;;-1.33;52.67
27840;BME280;15207;42.182;24.308;2023-02-12T03:09:28;100153.59;;;-1.36;53.43
27840;BME280;15207;42.182;24.308;2023-02-12T03:12:05;100150.97;;;-1.36;53.24
27840;BME280;15207;42.182;24.308;2023-02-12T03:14:37;100154.16;;;-1.16;53.96
27840;BME280;15207;42.182;24.308;2023-02-12T03:17:17;100162.66;;;-1.00;52.68
27840;BME280;15207;42.182;24.308;2023-02-12T03:19:51;100169.31;;;-0.79;52.21
27840;BME280;15207;42.182;24.308;2023-02-12T03:22:27;100161.53;;;-0.85;52.83
27840;BME280;15207;42.182;24.308;2023-02-12T03:25:03;100167.81;;;-0.96;52.71
27840;BME280;15207;42.182;24.308;2023-02-12T03:27:38;100166.19;;;-1.01;53.04
27840;BME280;15207;42.182;24.308;2023-02-12T03:30:05;100174.00;;;-0.97;52.82
27840;BME280;15207;42.182;24.308;2023-02-12T03:33:06;100176.63;;;-0.97;52.05
27840;BME280;15207;42.182;24.308;2023-02-12T03:35:41;100174.75;;;-0.90;51.87
27840;BME280;15207;42.182;24.308;2023-02-12T03:38:40;100173.91;;;-0.92;51.81
27840;BME280;15207;42.182;24.308;2023-02-12T03:41:14;100162.78;;;-1.08;52.49
27840;BME280;15207;42.182;24.308;2023-02-12T03:46:16;100162.69;;;-1.02;51.51
27840;BME280;15207;42.182;24.308;2023-02-12T03:48:51;100162.94;;;-1.17;54.74
27840;BME280;15207;42.182;24.308;2023-02-12T03:53:46;100160.19;;;-1.10;53.99
27840;BME280;15207;42.182;24.308;2023-02-12T03:56:23;100152.81;;;-0.89;52.81
27840;BME280;15207;42.182;24.308;2023-02-12T03:58:49;100156.81;;;-0.68;51.53
27840;BME280;15207;42.182;24.308;2023-02-12T04:01:16;100162.81;;;-0.61;50.23
27840;BME280;15207;42.182;24.308;2023-02-12T04:03:41;100161.19;;;-0.68;52.32
27840;BME280;15207;42.182;24.308;2023-02-12T04:06:21;100160.97;;;-0.56;52.08
27840;BME280;15207;42.182;24.308;2023-02-12T04:08:47;100158.22;;;-0.51;52.11
27840;BME280;15207;42.182;24.308;2023-02-12T04:11:22;100155.53;;;-0.46;51.13
27840;BME280;15207;42.182;24.308;2023-02-12T04:14:19;100148.47;;;-0.44;51.00
27840;BME280;15207;42.182;24.308;2023-02-12T04:23:10;100157.41;;;-0.10;49.82
27840;BME280;15207;42.182;24.308;2023-02-12T04:30:44;100163.25;;;0.04;48.04
27840;BME280;15207;42.182;24.308;2023-02-12T04:33:17;100176.75;;;-0.10;49.39
27840;BME280;15207;42.182;24.308;2023-02-12T04:35:51;100173.19;;;-0.09;49.60
27840;BME280;15207;42.182;24.308;2023-02-12T04:38:30;100168.66;;;-0.02;49.73
27840;BME280;15207;42.182;24.308;2023-02-12T04:40:58;100167.88;;;-0.06;49.97
27840;BME280;15207;42.182;24.308;2023-02-12T04:43:33;100170.66;;;-0.12;50.25
27840;BME280;15207;42.182;24.308;2023-02-12T04:45:59;100177.84;;;-0.22;50.42
27840;BME280;15207;42.182;24.308;2023-02-12T04:48:25;100183.31;;;-0.31;50.70
27840;BME280;15207;42.182;24.308;2023-02-12T04:50:51;100173.59;;;-0.28;50.35
27840;BME280;15207;42.182;24.308;2023-02-12T04:53:16;100183.31;;;-0.31;49.88
27840;BME280;15207;42.182;24.308;2023-02-12T04:55:42;100182.31;;;-0.25;49.22
27840;BME280;15207;42.182;24.308;2023-02-12T04:58:07;100178.66;;;-0.18;48.78
27840;BME280;15207;42.182;24.308;2023-02-12T05:00:33;100184.81;;;-0.19;49.23
27840;BME280;15207;42.182;24.308;2023-02-12T05:02:59;100186.53;;;-0.17;49.62
27840;BME280;15207;42.182;24.308;2023-02-12T05:05:24;100188.22;;;-0.12;50.00
27840;BME280;15207;42.182;24.308;2023-02-12T05:07:50;100195.28;;;-0.15;50.04
27840;BME280;15207;42.182;24.308;2023-02-12T05:10:15;100195.16;;;-0.08;49.76
27840;BME280;15207;42.182;24.308;2023-02-12T05:12:41;100185.56;;;-0.12;50.22
27840;BME280;15207;42.182;24.308;2023-02-12T05:15:07;100193.22;;;0.00;49.72
27840;BME280;15207;42.182;24.308;2023-02-12T05:17:33;100194.69;;;0.13;49.29
27840;BME280;15207;42.182;24.308;2023-02-12T05:19:59;100202.50;;;0.18;49.07
27840;BME280;15207;42.182;24.308;2023-02-12T05:22:24;100204.44;;;0.08;48.80
27840;BME280;15207;42.182;24.308;2023-02-12T05:24:50;100213.03;;;0.18;49.19
27840;BME280;15207;42.182;24.308;2023-02-12T05:27:15;100217.19;;;0.30;49.71
27840;BME280;15207;42.182;24.308;2023-02-12T05:29:41;100214.41;;;0.36;49.77
27840;BME280;15207;42.182;24.308;2023-02-12T05:32:07;100218.81;;;0.34;50.24
27840;BME280;15207;42.182;24.308;2023-02-12T05:34:34;100221.25;;;0.44;50.39
27840;BME280;15207;42.182;24.308;2023-02-12T05:37:00;100222.00;;;0.50;50.02
27840;BME280;15207;42.182;24.308;2023-02-12T05:39:26;100221.88;;;0.55;49.60
27840;BME280;15207;42.182;24.308;2023-02-12T05:41:51;100221.78;;;0.60;49.67
27840;BME280;15207;42.182;24.308;2023-02-12T05:44:17;100232.97;;;0.70;49.54
27840;BME280;15207;42.182;24.308;2023-02-12T05:46:42;100225.25;;;0.62;49.79
27840;BME280;15207;42.182;24.308;2023-02-12T05:49:09;100220.84;;;0.62;49.87
27840;BME280;15207;42.182;24.308;2023-02-12T05:51:35;100227.69;;;0.70;49.78
27840;BME280;15207;42.182;24.308;2023-02-12T05:54:03;100229.22;;;0.80;50.29
27840;BME280;15207;42.182;24.308;2023-02-12T05:56:34;100239.88;;;0.75;50.20
27840;BME280;15207;42.182;24.308;2023-02-12T05:59:05;100241.22;;;0.94;50.11
27840;BME280;15207;42.182;24.308;2023-02-12T06:01:34;100235.59;;;1.08;49.16
27840;BME280;15207;42.182;24.308;2023-02-12T06:04:02;100236.31;;;1.14;49.42
27840;BME280;15207;42.182;24.308;2023-02-12T06:06:28;100242.31;;;1.21;48.54
27840;BME280;15207;42.182;24.308;2023-02-12T06:08:56;100237.16;;;1.16;48.04
27840;BME280;15207;42.182;24.308;2023-02-12T06:11:22;100243.47;;;1.09;48.74
27840;BME280;15207;42.182;24.308;2023-02-12T06:13:48;100250.53;;;1.43;48.50
27840;BME280;15207;42.182;24.308;2023-02-12T06:16:24;100241.06;;;1.36;48.64
27840;BME280;15207;42.182;24.308;2023-02-12T06:18:51;100240.31;;;1.31;49.42
27840;BME280;15207;42.182;24.308;2023-02-12T06:21:17;100242.56;;;1.47;49.98
27840;BME280;15207;42.182;24.308;2023-02-12T06:23:44;100241.09;;;1.68;50.50
27840;BME280;15207;42.182;24.308;2023-02-12T06:26:10;100234.38;;;1.88;51.17
27840;BME280;15207;42.182;24.308;2023-02-12T06:28:36;100246.22;;;2.06;51.58
27840;BME280;15207;42.182;24.308;2023-02-12T06:31:01;100246.44;;;2.28;51.68
27840;BME280;15207;42.182;24.308;2023-02-12T06:33:27;100233.28;;;2.57;51.20
27840;BME280;15207;42.182;24.308;2023-02-12T06:35:52;100234.53;;;2.73;50.81
27840;BME280;15207;42.182;24.308;2023-02-12T06:38:18;100237.34;;;2.96;50.35
27840;BME280;15207;42.182;24.308;2023-02-12T06:40:43;100235.88;;;3.14;49.16
27840;BME280;15207;42.182;24.308;2023-02-12T06:43:09;100235.63;;;3.22;49.02
27840;BME280;15207;42.182;24.308;2023-02-12T06:45:34;100233.84;;;3.22;48.40
27840;BME280;15207;42.182;24.308;2023-02-12T06:48:00;100238.56;;;3.39;47.94
27840;BME280;15207;42.182;24.308;2023-02-12T06:50:26;100234.38;;;3.59;47.60
27840;BME280;15207;42.182;24.308;2023-02-12T06:52:51;100236.34;;;3.78;47.20
27840;BME280;15207;42.182;24.308;2023-02-12T06:55:17;100238.00;;;3.80;47.17
27840;BME280;15207;42.182;24.308;2023-02-12T06:57:43;100234.50;;;4.04;46.64
27840;BME280;15207;42.182;24.308;2023-02-12T07:00:09;100238.00;;;4.06;46.14
27840;BME280;15207;42.182;24.308;2023-02-12T07:02:34;100238.41;;;4.19;45.70
27840;BME280;15207;42.182;24.308;2023-02-12T07:05:00;100246.09;;;4.25;45.46
27840;BME280;15207;42.182;24.308;2023-02-12T07:07:25;100243.34;;;4.28;45.03
27840;BME280;15207;42.182;24.308;2023-02-12T07:09:51;100246.44;;;4.40;44.93
27840;BME280;15207;42.182;24.308;2023-02-12T07:12:16;100241.94;;;4.42;44.82
27840;BME280;15207;42.182;24.308;2023-02-12T07:14:42;100236.38;;;4.49;44.60
27840;BME280;15207;42.182;24.308;2023-02-12T07:17:10;100229.25;;;4.50;43.74
27840;BME280;15207;42.182;24.308;2023-02-12T07:19:36;100240.44;;;4.58;43.47
27840;BME280;15207;42.182;24.308;2023-02-12T07:22:01;100232.22;;;4.65;43.10
27840;BME280;15207;42.182;24.308;2023-02-12T07:24:27;100240.72;;;4.74;43.11
27840;BME280;15207;42.182;24.308;2023-02-12T07:26:53;100240.81;;;4.94;43.03
27840;BME280;15207;42.182;24.308;2023-02-12T07:29:18;100228.28;;;4.97;42.65
27840;BME280;15207;42.182;24.308;2023-02-12T07:31:44;100227.78;;;5.10;42.15
27840;BME280;15207;42.182;24.308;2023-02-12T07:34:10;100218.63;;;5.17;41.80
27840;BME280;15207;42.182;24.308;2023-02-12T07:36:36;100224.88;;;5.16;42.26
27840;BME280;15207;42.182;24.308;2023-02-12T07:39:02;100233.34;;;5.24;42.62
27840;BME280;15207;42.182;24.308;2023-02-12T07:41:30;100233.78;;;5.15;42.71
27840;BME280;15207;42.182;24.308;2023-02-12T07:44:03;100236.00;;;5.24;42.78
27840;BME280;15207;42.182;24.308;2023-02-12T07:46:37;100250.22;;;5.23;43.12
27840;BME280;15207;42.182;24.308;2023-02-12T07:49:05;100249.06;;;5.31;43.53
27840;BME280;15207;42.182;24.308;2023-02-12T07:51:35;100255.22;;;5.31;43.95
27840;BME280;15207;42.182;24.308;2023-02-12T07:54:01;100253.31;;;5.35;44.13
27840;BME280;15207;42.182;24.308;2023-02-12T07:56:30;100257.88;;;5.52;44.28
27840;BME280;15207;42.182;24.308;2023-02-12T07:58:58;100259.03;;;5.46;44.53
27840;BME280;15207;42.182;24.308;2023-02-12T08:01:31;100259.56;;;5.54;45.02
27840;BME280;15207;42.182;24.308;2023-02-12T08:03:59;100259.44;;;5.58;45.53
27840;BME280;15207;42.182;24.308;2023-02-12T08:06:26;100263.94;;;5.35;46.67
27840;BME280;15207;42.182;24.308;2023-02-12T08:08:55;100267.84;;;5.47;46.88
27840;BME280;15207;42.182;24.308;2023-02-12T08:11:21;100276.50;;;5.52;47.81
27840;BME280;15207;42.182;24.308;2023-02-12T08:13:46;100272.25;;;5.48;48.58
27840;BME280;15207;42.182;24.308;2023-02-12T08:16:14;100272.06;;;5.52;49.36
27840;BME280;15207;42.182;24.308;2023-02-12T08:18:44;100264.88;;;5.54;49.60
27840;BME280;15207;42.182;24.308;2023-02-12T08:21:12;100261.03;;;5.62;49.80
27840;BME280;15207;42.182;24.308;2023-02-12T08:23:38;100261.47;;;5.72;49.87
27840;BME280;15207;42.182;24.308;2023-02-12T08:28:38;100277.69;;;5.86;49.70
27840;BME280;15207;42.182;24.308;2023-02-12T08:31:07;100277.09;;;5.79;50.18
27840;BME280;15207;42.182;24.308;2023-02-12T08:33:33;100271.00;;;5.77;50.18
27840;BME280;15207;42.182;24.308;2023-02-12T08:36:03;100276.53;;;5.73;50.43
27840;BME280;15207;42.182;24.308;2023-02-12T08:38:31;100268.47;;;5.74;50.39
27840;BME280;15207;42.182;24.308;2023-02-12T08:41:00;100260.91;;;5.86;50.36
27840;BME280;15207;42.182;24.308;2023-02-12T08:43:26;100261.50;;;5.92;49.98
27840;BME280;15207;42.182;24.308;2023-02-12T08:45:51;100263.72;;;6.02;50.00
27840;BME280;15207;42.182;24.308;2023-02-12T08:48:17;100258.91;;;6.12;49.07
27840;BME280;15207;42.182;24.308;2023-02-12T08:50:45;100269.25;;;6.18;48.34
27840;BME280;15207;42.182;24.308;2023-02-12T08:53:10;100275.53;;;6.36;48.59
27840;BME280;15207;42.182;24.308;2023-02-12T08:55:36;100276.16;;;6.41;47.90
27840;BME280;15207;42.182;24.308;2023-02-12T08:58:01;100286.31;;;6.52;47.62
27840;BME280;15207;42.182;24.308;2023-02-12T09:00:28;100290.34;;;6.61;47.63
27840;BME280;15207;42.182;24.308;2023-02-12T09:02:53;100293.81;;;6.82;46.91
27840;BME280;15207;42.182;24.308;2023-02-12T09:05:19;100299.53;;;6.92;46.45
27840;BME280;15207;42.182;24.308;2023-02-12T09:07:44;100297.50;;;7.17;46.53
27840;BME280;15207;42.182;24.308;2023-02-12T09:10:10;100300.03;;;7.37;45.65
27840;BME280;15207;42.182;24.308;2023-02-12T09:12:35;100292.03;;;7.55;45.08
27840;BME280;15207;42.182;24.308;2023-02-12T09:15:01;100294.88;;;7.70;44.82
27840;BME280;15207;42.182;24.308;2023-02-12T09:17:27;100308.34;;;7.84;44.48
27840;BME280;15207;42.182;24.308;2023-02-12T09:19:53;100305.06;;;7.97;43.83
27840;BME280;15207;42.182;24.308;2023-02-12T09:22:18;100299.53;;;8.17;43.79
27840;BME280;15207;42.182;24.308;2023-02-12T09:24:44;100298.44;;;8.22;43.47
27840;BME280;15207;42.182;24.308;2023-02-12T09:27:09;100299.19;;;8.24;43.40
27840;BME280;15207;42.182;24.308;2023-02-12T09:29:35;100307.06;;;8.27;43.22
27840;BME280;15207;42.182;24.308;2023-02-12T09:32:01;100304.06;;;8.33;42.99
27840;BME280;15207;42.182;24.308;2023-02-12T09:34:29;100317.66;;;8.28;43.00
27840;BME280;15207;42.182;24.308;2023-02-12T09:36:58;100312.75;;;8.37;41.54
27840;BME280;15207;42.182;24.308;2023-02-12T09:39:23;100305.56;;;8.55;41.79
27840;BME280;15207;42.182;24.308;2023-02-12T09:45:03;100309.84;;;8.75;40.93
27840;BME280;15207;42.182;24.308;2023-02-12T09:47:38;100308.97;;;8.75;40.20
27840;BME280;15207;42.182;24.308;2023-02-12T09:50:55;100314.16;;;8.78;40.01
27840;BME280;15207;42.182;24.308;2023-02-12T09:53:01;100304.06;;;8.83;40.52
27840;BME280;15207;42.182;24.308;2023-02-12T09:55:32;100298.72;;;8.99;40.30
27840;BME280;15207;42.182;24.308;2023-02-12T09:58:10;100299.66;;;9.14;39.55
27840;BME280;15207;42.182;24.308;2023-02-12T10:00:37;100303.25;;;9.29;39.41
27840;BME280;15207;42.182;24.308;2023-02-12T10:03:04;100301.50;;;9.44;38.99
27840;BME280;15207;42.182;24.308;2023-02-12T10:05:48;100293.44;;;9.60;38.80
27840;BME280;15207;42.182;24.308;2023-02-12T10:14:13;100297.06;;;9.59;38.11
27840;BME280;15207;42.182;24.308;2023-02-12T10:23:10;100303.06;;;9.16;39.04
27840;BME280;15207;42.182;24.308;2023-02-12T10:28:26;100303.44;;;9.26;38.75
27840;BME280;15207;42.182;24.308;2023-02-12T10:30:56;100308.75;;;9.42;38.37
27840;BME280;15207;42.182;24.308;2023-02-12T10:33:27;100293.03;;;9.52;38.19
27840;BME280;15207;42.182;24.308;2023-02-12T10:36:01;100304.94;;;9.77;38.04
27840;BME280;15207;42.182;24.308;2023-02-12T10:38:32;100304.09;;;9.91;37.99
27840;BME280;15207;42.182;24.308;2023-02-12T10:40:59;100301.84;;;10.14;37.88
27840;BME280;15207;42.182;24.308;2023-02-12T10:43:26;100287.59;;;10.28;37.04
27840;BME280;15207;42.182;24.308;2023-02-12T10:45:52;100300.31;;;10.24;37.04
27840;BME280;15207;42.182;24.308;2023-02-12T10:48:30;100298.28;;;9.99;37.39
27840;BME280;15207;42.182;24.308;2023-02-12T10:53:42;100295.31;;;9.89;37.99
27840;BME280;15207;42.182;24.308;2023-02-12T10:58:59;100309.28;;;9.63;38.60
27840;BME280;15207;42.182;24.308;2023-02-12T11:01:32;100317.09;;;9.52;38.85
27840;BME280;15207;42.182;24.308;2023-02-12T11:04:00;100323.38;;;9.51;39.32
27840;BME280;15207;42.182;24.308;2023-02-12T11:06:58;100320.50;;;9.39;39.29
27840;BME280;15207;42.182;24.308;2023-02-12T11:09:29;100319.81;;;9.20;39.40
27840;BME280;15207;42.182;24.308;2023-02-12T11:11:56;100327.06;;;8.85;40.19
27840;BME280;15207;42.182;24.308;2023-02-12T11:14:23;100328.53;;;8.75;40.47
27840;BME280;15207;42.182;24.308;2023-02-12T11:16:55;100342.31;;;8.67;40.84
27840;BME280;15207;42.182;24.308;2023-02-12T11:19:29;100344.19;;;8.65;41.20
27840;BME280;15207;42.182;24.308;2023-02-12T11:22:12;100339.44;;;8.70;41.18
27840;BME280;15207;42.182;24.308;2023-02-12T11:24:43;100339.03;;;8.78;41.14
27840;BME280;15207;42.182;24.308;2023-02-12T11:29:38;100335.09;;;8.85;40.79
27840;BME280;15207;42.182;24.308;2023-02-12T11:32:06;100337.47;;;8.90;40.50
27840;BME280;15207;42.182;24.308;2023-02-12T11:34:36;100338.53;;;8.88;40.54
27840;BME280;15207;42.182;24.308;2023-02-12T11:37:01;100347.41;;;8.88;40.89
27840;BME280;15207;42.182;24.308;2023-02-12T11:39:35;100342.31;;;8.83;40.90
27840;BME280;15207;42.182;24.308;2023-02-12T11:42:16;100345.25;;;8.79;41.11
27840;BME280;15207;42.182;24.308;2023-02-12T11:44:56;100337.38;;;8.76;41.36
27840;BME280;15207;42.182;24.308;2023-02-12T11:47:28;100334.63;;;8.77;41.28
27840;BME280;15207;42.182;24.308;2023-02-12T11:50:00;100340.78;;;8.79;41.08
27840;BME280;15207;42.182;24.308;2023-02-12T11:52:31;100329.47;;;8.90;41.38
27840;BME280;15207;42.182;24.308;2023-02-12T11:55:05;100336.31;;;9.12;41.16
27840;BME280;15207;42.182;24.308;2023-02-12T11:57:48;100338.25;;;9.24;40.71
27840;BME280;15207;42.182;24.308;2023-02-12T12:03:55;100328.91;;;9.48;39.65
27840;BME280;15207;42.182;24.308;2023-02-12T12:09:15;100335.38;;;9.44;39.30
27840;BME280;15207;42.182;24.308;2023-02-12T12:14:55;100341.09;;;9.37;39.48
27840;BME280;15207;42.182;24.308;2023-02-12T12:20:40;100348.00;;;9.42;39.44
27840;BME280;15207;42.182;24.308;2023-02-12T12:23:19;100348.06;;;9.40;39.50
27840;BME280;15207;42.182;24.308;2023-02-12T12:25:56;100340.13;;;9.38;39.67
27840;BME280;15207;42.182;24.308;2023-02-12T12:30:56;100344.63;;;9.54;40.08
27840;BME280;15207;42.182;24.308;2023-02-12T12:39:14;100347.59;;;9.64;39.43
27840;BME280;15207;42.182;24.308;2023-02-12T12:47:04;100358.91;;;9.53;40.21
27840;BME280;15207;42.182;24.308;2023-02-12T12:59:50;100371.66;;;9.17;41.38
27840;BME280;15207;42.182;24.308;2023-02-12T13:08:20;100388.97;;;8.94;41.81
27840;BME280;15207;42.182;24.308;2023-02-12T13:19:57;100393.38;;;8.61;42.64
27840;BME280;15207;42.182;24.308;2023-02-12T13:22:56;100393.91;;;8.50;42.97
27840;BME280;15207;42.182;24.308;2023-02-12T13:25:30;100400.69;;;8.57;42.97
27840;BME280;15207;42.182;24.308;2023-02-12T13:28:01;100398.38;;;8.50;43.01
27840;BME280;15207;42.182;24.308;2023-02-12T13:30:37;100403.81;;;8.66;42.54
27840;BME280;15207;42.182;24.308;2023-02-12T13:35:30;100406.00;;;8.75;42.79
27840;BME280;15207;42.182;24.308;2023-02-12T13:37:58;100406.41;;;8.83;42.19
27840;BME280;15207;42.182;24.308;2023-02-12T13:40:27;100408.94;;;8.86;42.25
27840;BME280;15207;42.182;24.308;2023-02-12T13:43:35;100403.44;;;8.90;42.30
27840;BME280;15207;42.182;24.308;2023-02-12T13:46:33;100422.72;;;8.79;42.46
27840;BME280;15207;42.182;24.308;2023-02-12T13:49:01;100419.09;;;8.80;42.90
27840;BME280;15207;42.182;24.308;2023-02-12T13:51:50;100421.41;;;8.70;42.75
27840;BME280;15207;42.182;24.308;2023-02-12T13:57:02;100416.69;;;8.75;42.63
27840;BME280;15207;42.182;24.308;2023-02-12T14:02:26;100426.09;;;8.47;43.50
27840;BME280;15207;42.182;24.308;2023-02-12T14:07:19;100423.41;;;8.31;43.85
27840;BME280;15207;42.182;24.308;2023-02-12T14:12:35;100442.56;;;8.22;44.32
27840;BME280;15207;42.182;24.308;2023-02-12T14:15:07;100444.75;;;8.13;44.59
27840;BME280;15207;42.182;24.308;2023-02-12T14:30:37;100465.84;;;8.18;44.30
27840;BME280;15207;42.182;24.308;2023-02-12T14:35:32;100473.13;;;7.97;44.87
27840;BME280;15207;42.182;24.308;2023-02-12T14:48:50;100498.28;;;7.54;45.78
27840;BME280;15207;42.182;24.308;2023-02-12T14:53:53;100512.78;;;7.48;46.15
27840;BME280;15207;42.182;24.308;2023-02-12T14:56:21;100518.94;;;7.49;45.86
27840;BME280;15207;42.182;24.308;2023-02-12T14:58:52;100521.63;;;7.49;46.00
27840;BME280;15207;42.182;24.308;2023-02-12T15:01:30;100527.13;;;7.46;46.13
27840;BME280;15207;42.182;24.308;2023-02-12T15:03:57;100531.03;;;7.37;46.41
27840;BME280;15207;42.182;24.308;2023-02-12T15:06:36;100537.97;;;7.41;46.75
27840;BME280;15207;42.182;24.308;2023-02-12T15:09:15;100542.88;;;7.31;46.84
27840;BME280;15207;42.182;24.308;2023-02-12T15:11:49;100547.25;;;7.32;47.09
27840;BME280;15207;42.182;24.308;2023-02-12T15:14:34;100551.53;;;7.36;46.82
27840;BME280;15207;42.182;24.308;2023-02-12T15:17:23;100555.31;;;7.31;46.75
27840;BME280;15207;42.182;24.308;2023-02-12T15:25:25;100565.22;;;7.08;47.68
27840;BME280;15207;42.182;24.308;2023-02-12T15:27:56;100562.53;;;7.08;47.88
27840;BME280;15207;42.182;24.308;2023-02-12T15:30:30;100568.69;;;6.89;48.35
27840;BME280;15207;42.182;24.308;2023-02-12T15:32:59;100578.03;;;6.79;48.66
27840;BME280;15207;42.182;24.308;2023-02-12T15:35:30;100590.06;;;6.87;48.39
27840;BME280;15207;42.182;24.308;2023-02-12T15:37:57;100592.47;;;6.94;48.01
27840;BME280;15207;42.182;24.308;2023-02-12T15:40:29;100593.28;;;6.96;48.21
27840;BME280;15207;42.182;24.308;2023-02-12T15:42:55;100598.94;;;6.88;48.13
27840;BME280;15207;42.182;24.308;2023-02-12T15:45:23;100602.00;;;6.79;48.31
27840;BME280;15207;42.182;24.308;2023-02-12T15:50:44;100618.28;;;6.71;48.65